Portada
METAR-TAF:

METAR-TAF

Aeropuertos :

Aeropuerto Internacional de Chongqing-Jiangbei

Chongqing, China

latitud: 29-31N, longitud: 106-29E, altitud: 351 m

Observación

El informe se hizo hace 42 minutos, a las 03:00 UTC
Viento 4 kt del norte-noreste, variando entre norte-noroeste y noreste
Temperatura 18°C
Humedad 77%
Presión 1023 hPa
Visibilidad: 6000 m
Nubes dispersas a una altura de 4300 ft

METAR: ZUCK 220300Z 02002MPS 330V050 6000 SCT043 18/14 Q1023 NOSIG

Hora: 11:42 (03:42 UTC)

Pronóstico

El informe se hizo hace 8 horas y 29 minutos, a las 19:13 UTC
Pronóstico válido del 22 a las 00 UTC al 22 a las 24 UTC
Viento 6 kt del norte
Visibilidad: 5000 m
Nubes dispersas a una altura de 1600 ft
Cielo cubierto a una altura de 4000 ft
neblina
Temporalmente
del 22 a las 18 UTC al 22 a las 24 UTC
Visibilidad: 3500 m
lluvia ligera, neblina

TAF: ZUCK 211913Z 2200/2224 01003MPS 5000 BR SCT016 OVC040 TX17/2207Z TN14/2223Z TEMPO 2218/2224 3500 -RA BR

Observaciones y pronósticos meteorológicos de más de 4000 aeropuertos (mensajes METAR y TAF).

Los puntos amarillos y rojos representan las estaciones disponibles.

Ponga el ratón en el punto deseado para ver el nombre de la estación.

Haga clic para ver las observaciones y los pronósticos meteorológicos.

Para cambiar el mapa : haga clic en los botones verdes con una cruz de color negro para hacer un zoom, en el botón verde con un guión para alejar o en las flechas verdes para mapas adyacentes.


METAR-TAF: